Lewisport, Kentucky
Current Conditions -  °F | °C
As of 8:39 PM on Sunday 23 Nov 2014 (Local Time) from KOWB Reporting Station
Light Rain Light Rain  
Wind Chill: 59°   Ceiling: 2200
Heat Index: 59°   Visibility: 4mi
Dew Point: 57°   Wind: 15mph
Humidity: 94%   Direction: 190°S
Pressure: 29.28"   Gusts: 23mph
Location:  37.94°N, 86.9°W
Report Text: KOWB 240239Z 19013G20KT 4SM -RA BR FEW011 BKN022 OVC027 15/14 A2928 RMK AO2 P0007
Loading
Personal Weather Stations






























Interactive Weather Map New forecast layout! Learn more

10-Day Weather Forecast

Advertisements
Track Severe Weather on mobile